Time;durP1;ratioP1;P1;durP2;ratioP2;P2;SDS_P1;SDS_P2;PMS_P1;PMS_P2;Temp;Humidity;BMP_temperature;BMP_pressure;BME280_temperature;BME280_humidity;BME280_pressure;Samples;Min_cycle;Max_cycle;Signal;HPM_P1;HPM_P2
2023/10/08 00:01:13;;;;;;;1999.90;999.90;;;14.70;99.90;;;;;;5049357;28;20031;-77
2023/10/08 00:03:40;;;;;;;1999.90;999.90;;;14.70;99.90;;;;;;5055683;28;20534;-77
2023/10/08 00:06:06;;;;;;;1999.90;999.90;;;14.70;99.90;;;;;;5055289;28;20021;-77
2023/10/08 00:08:33;;;;;;;1999.90;999.90;;;14.60;99.90;;;;;;5055696;28;20024;-72
2023/10/08 00:11:05;;;;;;;1999.90;999.90;;;14.60;99.90;;;;;;5055137;28;20526;-72
2023/10/08 00:13:35;;;;;;;1999.90;999.90;;;14.50;99.90;;;;;;5054146;28;20395;-77
2023/10/08 00:16:01;;;;;;;1999.90;999.90;;;14.50;99.90;;;;;;5055317;28;20111;-77
2023/10/08 00:18:27;;;;;;;1999.90;999.90;;;14.50;99.90;;;;;;5054597;28;20100;-72
2023/10/08 00:21:15;;;;;;;1999.90;999.90;;;14.50;99.90;;;;;;5055100;28;20032;-72
2023/10/08 00:23:41;;;;;;;1999.90;999.90;;;14.40;99.90;;;;;;5055302;28;20056;-72
2023/10/08 00:26:08;;;;;;;1999.90;999.90;;;14.40;99.90;;;;;;5043345;28;20061;-73
2023/10/08 00:28:34;;;;;;;1999.90;999.90;;;14.30;99.90;;;;;;5035452;28;20033;-77
2023/10/08 00:31:12;;;;;;;1999.90;999.90;;;14.30;99.90;;;;;;5046428;28;20040;-72
2023/10/08 00:33:39;;;;;;;1999.90;999.90;;;14.20;99.90;;;;;;5035303;28;20079;-72
2023/10/08 00:36:17;;;;;;;1999.90;999.90;;;14.10;99.90;;;;;;5035252;28;20030;-72
2023/10/08 00:38:49;;;;;;;1999.90;999.90;;;14.00;99.90;;;;;;5035137;28;20029;-77
2023/10/08 00:41:15;;;;;;;1999.90;999.90;;;13.90;99.90;;;;;;5033513;28;20133;-72
2023/10/08 00:43:42;;;;;;;1999.90;999.90;;;13.90;99.90;;;;;;5034920;28;20152;-77
2023/10/08 00:46:29;;;;;;;1999.90;999.90;;;13.90;99.90;;;;;;5034955;28;20028;-75
2023/10/08 00:48:55;;;;;;;1999.90;999.90;;;13.90;99.90;;;;;;5035178;28;20029;-72
2023/10/08 00:51:27;;;;;;;1999.90;999.90;;;13.90;99.90;;;;;;5034955;28;20029;-72
2023/10/08 00:54:06;;;;;;;1999.90;999.90;;;13.90;99.90;;;;;;5034713;28;20036;-77
2023/10/08 00:59:21;;;;;;;1999.90;999.90;;;13.80;99.90;;;;;;5034667;28;20059;-77
2023/10/08 01:01:51;;;;;;;1999.90;999.90;;;13.70;99.90;;;;;;5053594;28;20116;-72
2023/10/08 01:04:27;;;;;;;1999.90;999.90;;;13.60;99.90;;;;;;5053865;28;20144;-77
2023/10/08 01:06:59;;;;;;;1999.90;999.90;;;13.60;99.90;;;;;;5052801;28;20024;-72
2023/10/08 01:09:35;;;;;;;1999.90;999.90;;;13.60;99.90;;;;;;5054405;28;20036;-77
2023/10/08 01:12:19;;;;;;;1999.90;999.90;;;13.60;99.90;;;;;;5054215;28;20078;-77
2023/10/08 01:14:49;;;;;;;1999.90;999.90;;;13.60;99.90;;;;;;5054352;28;20112;-78
2023/10/08 01:17:16;;;;;;;1999.90;999.90;;;13.60;99.90;;;;;;5054058;28;20068;-72
2023/10/08 01:19:55;;;;;;;1999.90;999.90;;;13.60;99.90;;;;;;5054212;28;20484;-77
2023/10/08 01:22:22;;;;;;;1999.90;999.90;;;13.60;99.90;;;;;;5034172;28;20028;-72
2023/10/08 01:24:48;;;;;;;1999.90;999.90;;;13.50;99.90;;;;;;5033861;28;20619;-77
2023/10/08 01:27:21;;;;;;;1999.90;999.90;;;13.40;99.90;;;;;;5033959;28;20037;-72
2023/10/08 01:29:49;;;;;;;1999.90;999.90;;;13.40;99.90;;;;;;5037447;28;20025;-72
2023/10/08 01:32:16;;;;;;;1999.90;999.90;;;13.40;99.90;;;;;;5042798;28;20481;-77
2023/10/08 01:34:45;;;;;;;1999.90;999.90;;;13.30;99.90;;;;;;5034328;28;20026;-77
2023/10/08 01:37:19;;;;;;;1999.90;999.90;;;13.30;99.90;;;;;;5034236;28;20113;-77
2023/10/08 01:39:45;;;;;;;1999.90;999.90;;;13.20;99.90;;;;;;5034212;28;20042;-72
2023/10/08 01:42:21;;;;;;;1999.90;999.90;;;13.20;99.90;;;;;;5033820;28;20026;-72
2023/10/08 01:44:50;;;;;;;1999.90;999.90;;;13.20;99.90;;;;;;5033725;28;20096;-77
2023/10/08 01:47:16;;;;;;;1999.90;999.90;;;13.30;99.90;;;;;;5033629;28;20021;-77
2023/10/08 01:49:44;;;;;;;1999.90;999.90;;;13.50;99.90;;;;;;5033787;28;20029;-76
2023/10/08 01:52:23;;;;;;;1999.90;999.90;;;13.60;99.90;;;;;;5033729;28;20035;-77
2023/10/08 01:54:49;;;;;;;1999.90;999.90;;;13.70;99.90;;;;;;5033509;28;20096;-72
2023/10/08 01:57:16;;;;;;;1999.90;999.90;;;13.80;99.90;;;;;;5033658;28;20472;-78
2023/10/08 01:59:44;;;;;;;1999.90;999.90;;;13.80;99.90;;;;;;5035509;28;20105;-77
2023/10/08 02:02:09;;;;;;;1999.90;999.90;;;13.90;99.90;;;;;;5053590;28;20020;-77
2023/10/08 02:04:35;;;;;;;1999.90;999.90;;;14.00;99.90;;;;;;5053620;28;20439;-77
2023/10/08 02:07:03;;;;;;;1999.90;999.90;;;14.00;99.90;;;;;;5052972;28;20029;-77
2023/10/08 02:09:30;;;;;;;1999.90;999.90;;;14.00;99.90;;;;;;5053203;28;20029;-77
2023/10/08 02:11:56;;;;;;;1999.90;999.90;;;14.00;99.90;;;;;;5051737;28;20017;-77
2023/10/08 02:14:22;;;;;;;1999.90;999.90;;;13.90;99.90;;;;;;5053029;28;20044;-77
2023/10/08 02:16:49;;;;;;;1999.90;999.90;;;14.00;99.90;;;;;;5053183;28;20052;-72
2023/10/08 02:19:18;;;;;;;1999.90;999.90;;;14.00;99.90;;;;;;5053074;28;20033;-72
2023/10/08 02:21:46;;;;;;;1999.90;999.90;;;14.00;99.90;;;;;;5052700;28;20029;-72
2023/10/08 02:24:12;;;;;;;1999.90;999.90;;;13.90;99.90;;;;;;5052713;28;20044;-72
2023/10/08 02:26:39;;;;;;;1999.90;999.90;;;13.90;99.90;;;;;;5036797;28;20041;-77
2023/10/08 02:29:11;;;;;;;1999.90;999.90;;;13.90;99.90;;;;;;5033735;28;20125;-77
2023/10/08 02:31:40;;;;;;;1999.90;999.90;;;13.80;99.90;;;;;;5043757;28;20022;-72
2023/10/08 02:34:09;;;;;;;1999.90;999.90;;;13.80;99.90;;;;;;5033079;28;20030;-72
2023/10/08 02:36:40;;;;;;;1999.90;999.90;;;13.80;99.90;;;;;;5037135;28;20071;-77
2023/10/08 02:39:13;;;;;;;1999.90;999.90;;;13.80;99.90;;;;;;5052771;28;20403;-72
2023/10/08 02:41:45;;;;;;;1999.90;999.90;;;13.80;99.90;;;;;;5052843;28;20029;-77
2023/10/08 02:44:14;;;;;;;1999.90;999.90;;;13.80;99.90;;;;;;5052773;28;20025;-72
2023/10/08 02:46:47;;;;;;;1999.90;999.90;;;13.90;99.90;;;;;;5052811;28;20025;-72
2023/10/08 02:49:16;;;;;;;1999.90;999.90;;;13.90;99.90;;;;;;5052708;28;20024;-77
2023/10/08 02:51:44;;;;;;;1999.90;999.90;;;13.90;99.90;;;;;;5052513;28;20163;-77
2023/10/08 02:54:17;;;;;;;1999.90;999.90;;;13.90;99.90;;;;;;5052787;28;20048;-77
2023/10/08 02:56:51;;;;;;;1999.90;999.90;;;14.00;99.90;;;;;;5052728;28;20028;-72
2023/10/08 02:59:22;;;;;;;1999.90;999.90;;;13.90;99.90;;;;;;5052613;28;20365;-71
2023/10/08 03:01:55;;;;;;;1999.90;999.90;;;13.90;99.90;;;;;;5052337;28;20036;-72
2023/10/08 03:04:22;;;;;;;;;;;13.90;99.90;;;;;;5052944;28;20110;-77
2023/10/08 03:06:52;;;;;;;1999.90;999.90;;;13.80;99.90;;;;;;5052106;28;19912;-77
2023/10/08 03:09:23;;;;;;;1999.90;999.90;;;13.80;99.90;;;;;;5052050;28;20029;-77
2023/10/08 03:11:52;;;;;;;1999.90;999.90;;;13.80;99.90;;;;;;5052247;28;20025;-72
2023/10/08 03:14:22;;;;;;;1999.90;999.90;;;13.70;99.90;;;;;;5052499;28;20506;-72
2023/10/08 03:17:07;;;;;;;1999.90;999.90;;;13.70;99.90;;;;;;5052630;28;20056;-77
2023/10/08 03:19:33;;;;;;;1999.90;999.90;;;13.60;99.90;;;;;;5052498;28;20052;-77
2023/10/08 03:22:03;;;;;;;1999.90;999.90;;;13.50;99.90;;;;;;5052049;28;20029;-78
2023/10/08 03:24:29;;;;;;;1999.90;999.90;;;13.40;99.90;;;;;;5052419;28;20108;-72
2023/10/08 03:27:20;;;;;;;1999.90;999.90;;;13.30;99.90;;;;;;5033695;28;20050;-72
2023/10/08 03:29:46;;;;;;;1999.90;999.90;;;13.20;99.90;;;;;;5036080;28;20045;-77
2023/10/08 03:32:15;;;;;;;1999.90;999.90;;;13.20;99.90;;;;;;5044612;28;20110;-71
2023/10/08 03:34:48;;;;;;;1999.90;999.90;;;13.10;99.90;;;;;;5036266;28;20025;-77
2023/10/08 03:37:20;;;;;;;1999.90;999.90;;;13.10;99.90;;;;;;5036425;28;20029;-72
2023/10/08 03:40:00;;;;;;;1999.90;999.90;;;13.10;99.90;;;;;;5036024;28;20040;-72
2023/10/08 03:42:29;;;;;;;1999.90;999.90;;;13.10;99.90;;;;;;5036206;28;20519;-77
2023/10/08 03:44:56;;;;;;;1999.90;999.90;;;13.10;99.90;;;;;;5035990;28;20554;-72
2023/10/08 03:47:26;;;;;;;1999.90;999.90;;;13.10;99.90;;;;;;5036011;28;20021;-77
2023/10/08 03:49:54;;;;;;;1999.90;999.90;;;13.10;99.90;;;;;;5035221;28;20025;-72
2023/10/08 03:52:23;;;;;;;1999.90;999.90;;;13.20;99.90;;;;;;5035898;28;20030;-78
2023/10/08 03:54:59;;;;;;;1999.90;999.90;;;13.10;99.90;;;;;;5036330;28;20492;-77
2023/10/08 03:57:25;;;;;;;1999.90;999.90;;;13.20;99.90;;;;;;5036095;28;20064;-77
2023/10/08 03:59:55;;;;;;;1999.90;999.90;;;13.10;99.90;;;;;;5037976;28;20044;-77
2023/10/08 04:02:33;;;;;;;1999.90;999.90;;;13.10;99.90;;;;;;5055632;28;20447;-71
2023/10/08 04:05:17;;;;;;;1999.90;999.90;;;13.00;99.90;;;;;;5055480;28;20048;-72
2023/10/08 04:13:09;;;;;;;1999.90;999.90;;;13.00;99.90;;;;;;5044673;28;20400;-77
2023/10/08 04:15:40;;;;;;;1999.90;999.90;;;13.00;99.90;;;;;;5054050;28;20458;-71
2023/10/08 04:18:10;;;;;;;1999.90;999.90;;;13.00;99.90;;;;;;5055323;28;20369;-72
2023/10/08 04:20:38;;;;;;;1999.90;999.90;;;13.00;99.90;;;;;;5055294;28;20053;-72
2023/10/08 04:23:20;;;;;;;1999.90;999.90;;;13.00;99.90;;;;;;5054937;28;20035;-77
2023/10/08 04:25:47;;;;;;;1999.90;999.90;;;13.00;99.90;;;;;;5046385;28;20084;-77
2023/10/08 04:28:17;;;;;;;1999.90;999.90;;;13.00;99.90;;;;;;5035210;28;20507;-72
2023/10/08 04:30:45;;;;;;;1999.90;999.90;;;12.90;99.90;;;;;;5043860;28;20029;-72
2023/10/08 04:33:14;;;;;;;1999.90;999.90;;;12.90;99.90;;;;;;5038555;28;20546;-77
2023/10/08 04:35:48;;;;;;;1999.90;999.90;;;12.90;99.90;;;;;;5035131;28;20026;-77
2023/10/08 04:38:36;;;;;;;1999.90;999.90;;;12.90;99.90;;;;;;5034957;28;20488;-72
2023/10/08 04:41:08;;;;;;;1999.90;999.90;;;12.90;99.90;;;;;;5035181;28;20112;-72
2023/10/08 04:43:37;;;;;;;1999.90;999.90;;;12.90;99.90;;;;;;5035063;28;20025;-72
2023/10/08 04:46:19;;;;;;;1999.90;999.90;;;12.80;99.90;;;;;;5035239;28;20068;-77
2023/10/08 04:48:51;;;;;;;1999.90;999.90;;;12.80;99.90;;;;;;5034803;28;20056;-71
2023/10/08 04:51:18;;;;;;;1999.90;999.90;;;12.80;99.90;;;;;;5034219;28;20079;-77
2023/10/08 04:53:45;;;;;;;1999.90;999.90;;;12.70;99.90;;;;;;5034848;28;20044;-77
2023/10/08 04:56:22;;;;;;;1999.90;999.90;;;12.70;99.90;;;;;;5034559;28;20057;-72
2023/10/08 04:58:48;;;;;;;1999.90;999.90;;;12.60;99.90;;;;;;5034672;28;20044;-77
2023/10/08 05:01:20;;;;;;;1999.90;999.90;;;12.50;99.90;;;;;;5049236;28;20476;-77
2023/10/08 05:04:07;;;;;;;1999.90;999.90;;;12.50;99.90;;;;;;5054525;28;20028;-77
2023/10/08 05:30:25;;;;;;;1999.90;999.90;;;12.40;99.90;;;;;;5038773;28;20036;-77
2023/10/08 05:35:48;;;;;;;1999.90;999.90;;;12.40;99.90;;;;;;5034289;28;20115;-72
2023/10/08 05:46:39;;;;;;;1999.90;999.90;;;12.50;99.90;;;;;;5034053;28;20041;-72
2023/10/08 06:07:56;;;;;;;1999.90;999.90;;;12.50;99.90;;;;;;5053668;28;20032;-71
2023/10/08 06:13:05;;;;;;;1999.90;999.90;;;12.40;99.90;;;;;;5053379;28;20052;-72
2023/10/08 06:18:18;;;;;;;1999.90;999.90;;;12.30;99.90;;;;;;5053482;28;20112;-77
2023/10/08 06:20:44;;;;;;;1999.90;999.90;;;12.30;99.90;;;;;;5052888;28;20555;-77
2023/10/08 06:23:18;;;;;;;1999.90;999.90;;;12.30;99.90;;;;;;5052982;28;20021;-77
2023/10/08 06:25:47;;;;;;;1999.90;999.90;;;12.30;99.90;;;;;;5044354;28;20400;-72
2023/10/08 06:28:20;;;;;;;1999.90;999.90;;;12.30;99.90;;;;;;5033143;28;20484;-72
2023/10/08 06:30:53;;;;;;;1999.90;999.90;;;12.30;99.90;;;;;;5041715;28;20033;-77
2023/10/08 06:33:20;;;;;;;1999.90;999.90;;;12.30;99.90;;;;;;5035615;28;20029;-77
2023/10/08 06:36:01;;;;;;;1999.90;999.90;;;12.30;99.90;;;;;;5033063;28;20025;-77
2023/10/08 06:38:29;;;;;;;1999.90;999.90;;;12.40;99.90;;;;;;5032994;28;20021;-72
2023/10/08 06:40:55;;;;;;;1999.90;999.90;;;12.50;99.90;;;;;;5032730;28;20052;-71
2023/10/08 06:43:24;;;;;;;1999.90;999.90;;;12.50;99.90;;;;;;5033089;28;20064;-77
2023/10/08 06:45:53;;;;;;;1999.90;999.90;;;12.60;99.90;;;;;;5031392;28;20123;-77
2023/10/08 06:48:25;;;;;;;1999.90;999.90;;;12.60;99.90;;;;;;5033070;28;20033;-78
2023/10/08 06:50:58;;;;;;;1999.90;999.90;;;12.60;99.90;;;;;;5031945;28;20024;-71
2023/10/08 06:53:25;;;;;;;1999.90;999.90;;;12.60;99.90;;;;;;5036177;28;20029;-72
2023/10/08 06:55:56;;;;;;;1999.90;999.90;;;12.70;99.90;;;;;;5040253;28;20021;-72
2023/10/08 06:58:25;;;;;;;1999.90;999.90;;;12.70;99.90;;;;;;5032629;28;20021;-77
2023/10/08 07:00:52;;;;;;;1999.90;999.90;;;12.80;99.90;;;;;;5043956;28;20392;-77
2023/10/08 07:03:18;;;;;;;1999.90;999.90;;;12.90;99.90;;;;;;5052718;28;20098;-72
2023/10/08 07:05:59;;;;;;;1999.90;999.90;;;12.90;99.90;;;;;;5052673;28;20549;-72
2023/10/08 07:08:27;;;;;;;1999.90;999.90;;;13.00;99.90;;;;;;5056528;28;20504;-77
2023/10/08 07:10:53;;;;;;;1999.90;999.90;;;13.10;99.90;;;;;;5056690;28;20052;-77
2023/10/08 07:13:21;;;;;;;1999.90;999.90;;;13.20;99.90;;;;;;5056819;28;20033;-77
2023/10/08 07:15:51;;;;;;;1999.90;999.90;;;13.30;99.90;;;;;;5056525;28;20021;-77
2023/10/08 07:18:24;;;;;;;1999.90;999.90;;;13.40;99.90;;;;;;5055918;28;20560;-71
2023/10/08 07:20:55;;;;;;;1999.90;999.90;;;13.50;99.90;;;;;;5056446;28;20510;-72
2023/10/08 07:23:29;;;;;;;1999.90;999.90;;;13.60;99.90;;;;;;5056480;28;20056;-72
2023/10/08 07:26:11;;;;;;;1999.90;999.90;;;13.70;99.90;;;;;;5046091;28;20041;-77
2023/10/08 07:28:41;;;;;;;1999.90;999.90;;;13.90;99.90;;;;;;5036359;28;20060;-78
2023/10/08 07:31:17;;;;;;;1999.90;999.90;;;14.10;99.90;;;;;;5047444;28;20438;-72
2023/10/08 07:34:15;;;;;;;1999.90;999.90;;;14.40;99.90;;;;;;5036573;28;20021;-73
2023/10/08 07:36:42;;;;;;;1999.90;999.90;;;15.00;99.90;;;;;;5036637;28;20029;-72
2023/10/08 07:39:20;;;;;;;1999.90;999.90;;;15.10;99.90;;;;;;5036352;28;20029;-72
2023/10/08 07:41:47;;;;;;;1999.90;999.90;;;15.20;99.90;;;;;;5036202;28;20022;-72
2023/10/08 07:44:12;;;;;;;1999.90;999.90;;;15.30;99.90;;;;;;5036433;28;20388;-72
2023/10/08 07:46:38;;;;;;;1999.90;999.90;;;15.50;99.90;;;;;;5035933;28;20029;-72
2023/10/08 07:49:05;;;;;;;1999.90;999.90;;;15.60;99.90;;;;;;5035759;28;20543;-78
2023/10/08 07:51:30;;;;;;;1999.90;999.90;;;15.80;99.90;;;;;;5035842;28;20022;-78
2023/10/08 07:53:56;;;;;;;1999.90;999.90;;;16.00;99.90;;;;;;5035879;28;20036;-78
2023/10/08 07:56:23;;;;;;;1999.90;999.90;;;16.20;99.90;;;;;;5036129;28;20021;-78
2023/10/08 07:58:49;;;;;;;1999.90;999.90;;;16.50;99.90;;;;;;5035811;28;20018;-78
2023/10/08 08:01:15;;;;;;;1999.90;999.90;;;16.70;99.90;;;;;;5050376;28;20032;-78
2023/10/08 08:03:41;;;;;;;1999.90;999.90;;;16.90;99.90;;;;;;5055755;28;20029;-78
2023/10/08 08:06:09;;;;;;;1999.90;999.90;;;17.30;99.90;;;;;;5055346;28;20028;-78
2023/10/08 08:08:36;;;;;;;1999.90;999.90;;;17.90;99.90;;;;;;5047825;28;20029;-78
2023/10/08 08:11:07;;;;;;;1999.90;999.90;;;18.90;99.90;;;;;;5046673;28;20640;-78
2023/10/08 08:13:34;;;;;;;1999.90;999.90;;;19.60;99.90;;;;;;5055806;28;20027;-73
2023/10/08 08:16:09;;;;;;;1999.90;999.90;;;20.20;99.90;;;;;;5055069;28;20028;-78
2023/10/08 08:18:36;;;;;;;1999.90;999.90;;;20.20;99.90;;;;;;5055339;28;20032;-78
2023/10/08 08:21:02;;;;;;;1999.90;999.90;;;20.50;99.90;;;;;;5054981;28;20498;-78
2023/10/08 08:23:31;;;;;;;1999.90;999.90;;;21.70;99.90;;;;;;5055218;28;20033;-73
2023/10/08 08:26:12;;;;;;;1999.90;999.90;;;23.30;99.90;;;;;;5054934;28;20144;-73
2023/10/08 08:28:39;;;;;;;1999.90;999.90;;;23.10;99.90;;;;;;5055219;28;20403;-79
2023/10/08 08:31:13;;;;;;;1999.90;999.90;;;22.40;99.90;;;;;;5046937;28;20534;-73
2023/10/08 08:33:59;;;;;;;1999.90;999.90;;;22.20;99.90;;;;;;5035274;28;20061;-78
2023/10/08 08:36:28;;;;;;;1999.90;999.90;;;23.50;99.90;;;;;;5035384;28;20032;-73
2023/10/08 08:38:54;;;;;;;1999.90;999.90;;;25.00;99.70;;;;;;5035314;28;20377;-73
2023/10/08 08:41:20;;;;;;;1999.90;999.90;;;26.10;97.90;;;;;;5035019;28;20036;-79
2023/10/08 08:43:59;;;;;;;1999.90;999.90;;;26.90;95.90;;;;;;5037343;28;20112;-79
2023/10/08 08:46:30;;;;;;;1999.90;999.90;;;27.40;94.40;;;;;;5043660;28;20520;-77
2023/10/08 08:48:57;;;;;;;1999.90;999.90;;;28.30;93.50;;;;;;5034881;28;20040;-72
2023/10/08 08:51:23;;;;;;;1999.90;999.90;;;29.30;92.50;;;;;;5034959;28;20033;-71
2023/10/08 08:53:49;;;;;;;1999.90;999.90;;;29.30;91.00;;;;;;5034817;28;20392;-71
2023/10/08 08:56:15;;;;;;;1999.90;999.90;;;29.10;90.50;;;;;;5034819;28;20036;-77
2023/10/08 08:58:43;;;;;;;1999.90;999.90;;;28.80;90.40;;;;;;5034856;28;20022;-77
2023/10/08 09:01:14;;;;;;;1999.90;999.90;;;29.20;89.50;;;;;;5048362;28;20029;-72
2023/10/08 09:03:39;;;;;;;1999.90;999.90;;;29.20;89.10;;;;;;5054559;28;20021;-72
2023/10/08 09:06:05;;;;;;;1999.90;999.90;;;29.30;88.40;;;;;;5054417;28;20095;-78
2023/10/08 09:08:35;;;;;;;1999.90;999.90;;;30.00;89.00;;;;;;5054216;28;20389;-78
2023/10/08 09:11:01;;;;;;;1999.90;999.90;;;30.60;86.80;;;;;;5054515;28;20025;-78
2023/10/08 09:13:28;;;;;;;1999.90;999.90;;;30.50;87.00;;;;;;5054204;28;20024;-78
2023/10/08 09:16:07;;;;;;;1999.90;999.90;;;29.70;87.20;;;;;;5054313;28;20025;-72
2023/10/08 09:18:33;;;;;;;1999.90;999.90;;;29.60;87.80;;;;;;5054042;28;20067;-71
2023/10/08 09:21:11;;;;;;;1999.90;999.90;;;29.30;87.30;;;;;;5054004;28;20032;-80
2023/10/08 09:23:44;;;;;;;1999.90;999.90;;;27.70;88.50;;;;;;5054191;28;20491;-79
2023/10/08 09:26:13;;;;;;;1999.90;999.90;;;26.50;89.30;;;;;;5041739;28;20056;-79
2023/10/08 09:28:40;;;;;;;1999.90;999.90;;;25.30;89.50;;;;;;5033221;28;20049;-73
2023/10/08 09:31:11;;;;;;;1999.90;999.90;;;24.30;91.60;;;;;;5045026;28;20116;-80
2023/10/08 09:33:37;;;;;;;1999.90;999.90;;;23.70;93.30;;;;;;5034768;28;20510;-72
2023/10/08 09:36:05;;;;;;;1999.90;999.90;;;23.60;94.30;;;;;;5034589;28;20030;-80
2023/10/08 09:38:33;;;;;;;1999.90;999.90;;;23.60;95.20;;;;;;5034178;28;20022;-79
2023/10/08 09:41:03;;;;;;;1999.90;999.90;;;23.40;95.70;;;;;;5033959;28;20021;-73
2023/10/08 09:43:29;;;;;;;1999.90;999.90;;;23.50;95.60;;;;;;5032810;28;20370;-73
2023/10/08 09:46:14;;;;;;;1999.90;999.90;;;23.40;96.40;;;;;;5033767;28;20053;-73
2023/10/08 09:48:44;;;;;;;1999.90;999.90;;;23.30;95.90;;;;;;5033767;28;20021;-79
2023/10/08 09:51:12;;;;;;;1999.90;999.90;;;23.50;96.40;;;;;;5033688;28;20033;-79
2023/10/08 09:53:52;;;;;;;1999.90;999.90;;;23.70;96.70;;;;;;5033618;28;20013;-73
2023/10/08 09:56:19;;;;;;;1999.90;999.90;;;23.90;95.90;;;;;;5033444;28;20385;-73
2023/10/08 09:58:49;;;;;;;1999.90;999.90;;;24.00;96.60;;;;;;5033304;28;20488;-79
2023/10/08 10:01:16;;;;;;;1999.90;999.90;;;24.00;95.30;;;;;;5047810;28;20029;-79
2023/10/08 10:03:43;;;;;;;1999.90;999.90;;;24.10;95.60;;;;;;5053359;28;20062;-78
2023/10/08 10:06:14;;;;;;;1999.90;999.90;;;24.00;95.60;;;;;;5053116;28;20028;-73
2023/10/08 10:08:41;;;;;;;1999.90;999.90;;;24.30;96.30;;;;;;5053323;28;20025;-73
2023/10/08 10:11:07;;;;;;;1999.90;999.90;;;24.20;95.90;;;;;;5053035;28;20489;-73
2023/10/08 10:13:48;;;;;;;1999.90;999.90;;;24.20;95.80;;;;;;5053123;28;20025;-79
2023/10/08 10:16:18;;;;;;;1999.90;999.90;;;24.10;96.30;;;;;;5053042;28;20025;-79
2023/10/08 10:18:48;;;;;;;1999.90;999.90;;;24.10;96.50;;;;;;5053015;28;20017;-78
2023/10/08 10:21:14;;;;;;;1999.90;999.90;;;24.10;95.50;;;;;;5052823;28;20029;-78
2023/10/08 10:23:43;;;;;;;1999.90;999.90;;;24.50;95.50;;;;;;5052795;28;20035;-73
2023/10/08 10:26:23;;;;;;;1999.90;999.90;;;24.50;95.30;;;;;;5040685;28;20075;-79
2023/10/08 10:29:07;;;;;;;1999.90;999.90;;;24.50;95.70;;;;;;5033161;28;20033;-79
2023/10/08 10:31:36;;;;;;;1999.90;999.90;;;24.60;96.00;;;;;;5044108;28;20139;-78
2023/10/08 10:34:08;;;;;;;1999.90;999.90;;;24.60;95.40;;;;;;5033216;28;20036;-73
2023/10/08 10:36:39;;;;;;;1999.90;999.90;;;24.80;95.00;;;;;;5033275;28;20022;-79
2023/10/08 10:39:26;;;;;;;1999.90;999.90;;;24.90;95.50;;;;;;5032757;28;20096;-78
2023/10/08 10:41:57;;;;;;;1999.90;999.90;;;24.90;95.30;;;;;;5033195;28;20029;-79
2023/10/08 10:44:26;;;;;;;1999.90;999.90;;;24.90;95.80;;;;;;5032797;28;20029;-73
2023/10/08 10:46:52;;;;;;;1999.90;999.90;;;25.00;95.70;;;;;;5033060;28;20022;-73
2023/10/08 10:49:36;;;;;;;1999.90;999.90;;;24.90;95.30;;;;;;5032316;28;20522;-73
2023/10/08 10:52:05;;;;;;;1999.90;999.90;;;25.00;94.60;;;;;;5032042;28;20029;-78
2023/10/08 10:54:36;;;;;;;1999.90;999.90;;;25.30;94.40;;;;;;5032628;28;20040;-79
2023/10/08 10:57:17;;;;;;;1999.90;999.90;;;25.40;95.10;;;;;;5032698;28;20156;-79
2023/10/08 10:59:52;;;;;;;1999.90;999.90;;;25.40;94.90;;;;;;5034725;28;20099;-73
2023/10/08 11:02:31;;;;;;;1999.90;999.90;;;25.30;95.50;;;;;;5052579;28;20028;-79
2023/10/08 11:05:07;;;;;;;1999.90;999.90;;;25.40;95.00;;;;;;5052345;28;20029;-78
2023/10/08 11:07:34;;;;;;;1999.90;999.90;;;25.60;95.20;;;;;;5052679;28;20050;-79
2023/10/08 11:10:00;;;;;;;1999.90;999.90;;;25.70;94.60;;;;;;5051147;28;20017;-78
2023/10/08 11:12:42;;;;;;;1999.90;999.90;;;25.70;94.70;;;;;;5052408;28;20056;-79
2023/10/08 11:15:15;;;;;;;1999.90;999.90;;;25.70;94.50;;;;;;5052478;28;20025;-79
2023/10/08 11:17:41;;;;;;;1999.90;999.90;;;25.70;94.40;;;;;;5052583;28;20104;-73
2023/10/08 11:20:26;;;;;;;1999.90;999.90;;;26.00;94.80;;;;;;5052622;28;20144;-79
2023/10/08 11:22:53;;;;;;;1999.90;999.90;;;26.10;94.40;;;;;;5052287;28;20443;-79
2023/10/08 11:25:30;;;;;;;1999.90;999.90;;;26.20;94.30;;;;;;5046600;28;20134;-73
2023/10/08 11:28:02;;;;;;;1999.90;999.90;;;26.40;93.10;;;;;;5032900;28;20026;-79
2023/10/08 11:30:30;;;;;;;1999.90;999.90;;;26.30;92.80;;;;;;5037948;28;20026;-79
2023/10/08 11:32:59;;;;;;;1999.90;999.90;;;26.40;93.20;;;;;;5038867;28;20167;-79
2023/10/08 11:35:27;;;;;;;1999.90;999.90;;;26.50;93.80;;;;;;5032456;28;20017;-79
2023/10/08 11:37:58;;;;;;;1999.90;999.90;;;26.60;93.30;;;;;;5032194;28;20053;-73
2023/10/08 11:40:48;;;;;;;1999.90;999.90;;;26.70;93.20;;;;;;5032311;28;20484;-73
2023/10/08 11:43:15;;;;;;;1999.90;999.90;;;26.80;92.80;;;;;;5046516;28;20025;-79
2023/10/08 11:45:48;;;;;;;1999.90;999.90;;;27.10;92.70;;;;;;5050770;28;20446;-79
2023/10/08 11:48:28;;;;;;;1999.90;999.90;;;27.10;92.40;;;;;;5052220;28;20498;-79
2023/10/08 11:50:57;;;;;;;1999.90;999.90;;;27.20;92.40;;;;;;5052128;28;20036;-79
2023/10/08 11:53:24;;;;;;;1999.90;999.90;;;27.30;92.00;;;;;;5055434;28;20090;-73
2023/10/08 11:55:54;;;;;;;1999.90;999.90;;;27.30;92.50;;;;;;5056066;28;20193;-78
2023/10/08 11:58:21;;;;;;;1999.90;999.90;;;27.40;91.90;;;;;;5056051;28;20025;-80
2023/10/08 12:00:52;;;;;;;1999.90;999.90;;;27.50;92.40;;;;;;5055735;28;20024;-79
2023/10/08 12:03:18;;;;;;;1999.90;999.90;;;27.60;94.40;;;;;;5055823;28;20102;-73
2023/10/08 12:05:48;;;;;;;1999.90;999.90;;;27.70;94.10;;;;;;5055593;28;20024;-79
2023/10/08 12:08:20;;;;;;;1999.90;999.90;;;27.80;94.30;;;;;;5055749;28;20051;-79
2023/10/08 12:10:47;;;;;;;1999.90;999.90;;;27.90;94.50;;;;;;5053920;28;20550;-79
2023/10/08 12:13:15;;;;;;;1999.90;999.90;;;27.80;94.40;;;;;;5055487;28;20218;-79
2023/10/08 12:15:41;;;;;;;1999.90;999.90;;;27.80;94.40;;;;;;5055464;28;20088;-79
2023/10/08 12:18:26;;;;;;;1999.90;999.90;;;27.90;94.30;;;;;;5055638;28;20025;-73
2023/10/08 12:20:53;;;;;;;1999.90;999.90;;;27.90;93.50;;;;;;5055009;28;20473;-79
2023/10/08 12:23:25;;;;;;;1999.90;999.90;;;28.00;93.90;;;;;;5055265;28;20029;-79
2023/10/08 12:25:57;;;;;;;1999.90;999.90;;;28.10;93.80;;;;;;5045261;28;20045;-79
2023/10/08 12:28:23;;;;;;;1999.90;999.90;;;28.30;93.30;;;;;;5035457;28;20079;-79
2023/10/08 12:30:52;;;;;;;1999.90;999.90;;;28.40;93.20;;;;;;5043244;28;20113;-73
2023/10/08 12:33:19;;;;;;;1999.90;999.90;;;28.50;93.20;;;;;;5038701;28;20022;-74
2023/10/08 12:35:48;;;;;;;1999.90;999.90;;;28.60;93.90;;;;;;5034650;28;20017;-79
2023/10/08 12:38:14;;;;;;;1999.90;999.90;;;28.60;93.00;;;;;;5035030;28;20079;-79
2023/10/08 12:40:47;;;;;;;1999.90;999.90;;;28.60;92.70;;;;;;5035004;28;20033;-73
2023/10/08 12:43:19;;;;;;;1999.90;999.90;;;28.50;94.40;;;;;;5035098;28;20072;-74
2023/10/08 12:45:53;;;;;;;1999.90;999.90;;;28.50;94.70;;;;;;5034827;28;20022;-73
2023/10/08 12:48:24;;;;;;;1999.90;999.90;;;28.60;95.00;;;;;;5034973;28;20033;-79
2023/10/08 12:50:53;;;;;;;1999.90;999.90;;;28.60;94.20;;;;;;5034657;28;20029;-78
2023/10/08 12:53:36;;;;;;;1999.90;999.90;;;28.30;94.00;;;;;;5034721;28;20025;-79
2023/10/08 12:56:06;;;;;;;1999.90;999.90;;;28.00;94.40;;;;;;5034928;28;20017;-73
2023/10/08 12:58:41;;;;;;;1999.90;999.90;;;28.20;94.50;;;;;;5034771;28;20096;-73
2023/10/08 13:01:09;;;;;;;1999.90;999.90;;;28.00;94.60;;;;;;5048249;28;20048;-79
2023/10/08 13:03:41;;;;;;;1999.90;999.90;;;27.90;94.50;;;;;;5054606;28;20045;-78
2023/10/08 13:06:14;;;;;;;1999.90;999.90;;;28.00;94.30;;;;;;5053453;28;20467;-79
2023/10/08 13:08:40;;;;;;;1999.90;999.90;;;28.10;94.40;;;;;;5053835;28;20033;-79
2023/10/08 13:11:06;;;;;;;1999.90;999.90;;;28.20;94.10;;;;;;5054327;28;20357;-73
2023/10/08 13:13:33;;;;;;;1999.90;999.90;;;28.20;94.60;;;;;;5054665;28;20036;-79
2023/10/08 13:16:02;;;;;;;1999.90;999.90;;;28.00;94.00;;;;;;5054224;28;20383;-79
2023/10/08 13:18:29;;;;;;;1999.90;999.90;;;28.10;94.10;;;;;;5054325;28;20047;-73
2023/10/08 13:20:55;;;;;;;1999.90;999.90;;;28.20;93.90;;;;;;5053605;28;20021;-73
2023/10/08 13:23:23;;;;;;;1999.90;999.90;;;28.20;93.70;;;;;;5054271;28;20025;-73